| time (UTC) | temp C | wind direction | speed KPH | gust KPH | rain 1hr cm | rain 24hr cm | rain mn cm | humidity % | barometer mb |
| 20260906100003 | 22 | 48 | 3.2 | 8.0 | 0.25 | 1.35 | 0.61 | 96 | 1012.9 |
| 20260906094602 | 22 | 304 | 0.0 | 11.3 | 0.23 | 1.32 | 0.58 | 95 | 1013.4 |
| 20260906093056 | 22 | 351 | 1.6 | 11.3 | 0.13 | 1.17 | 0.46 | 96 | 1013.7 |
| 20260906091536 | 22 | 355 | 0.0 | 12.9 | 0.08 | 1.12 | 0.38 | 96 | 1013.7 |
| 20260906090002 | 22 | 350 | 0.0 | 4.8 | 0.05 | 1.09 | 0.36 | 96 | 1013.3 |
| 20260906084609 | 22 | 351 | 0.0 | 0.0 | 0.05 | 1.09 | 0.36 | 96 | 1012.6 |
| 20260906083102 | 22 | 35 | 0.0 | 1.6 | 0.00 | 1.04 | 0.30 | 96 | 1012.3 |
| 20260906081553 | 22 | 35 | 0.0 | 0.0 | 0.00 | 1.04 | 0.30 | 96 | 1012.5 |
| 20260906080015 | 22 | 35 | 0.0 | 0.0 | 0.00 | 1.04 | 0.30 | 96 | 1012.3 |
| 20260906074528 | 22 | 35 | 0.0 | 0.0 | 0.00 | 1.04 | 0.30 | 96 | 1012.4 |
| 20260906073111 | 22 | 35 | 0.0 | 0.0 | 0.00 | 1.04 | 0.30 | 96 | 1012.1 |
| 20260906071605 | 22 | 35 | 0.0 | 0.0 | 0.00 | 1.04 | 0.30 | 95 | 1012.2 |
| 20260906070056 | 22 | 35 | 0.0 | 4.8 | 0.00 | 1.04 | 0.30 | 95 | 1012.4 |
| 20260906064540 | 22 | 37 | 0.0 | 4.8 | 0.00 | 1.04 | 0.30 | 95 | 1012.3 |
| 20260906063010 | 22 | 34 | 0.0 | 0.0 | 0.00 | 1.04 | 0.30 | 95 | 1012.3 |
| 20260906061636 | 22 | 34 | 0.0 | 1.6 | 0.03 | 1.04 | 0.30 | 95 | 1011.9 |
| 20260906060109 | 21 | 33 | 0.0 | 1.6 | 0.25 | 1.04 | 0.30 | 94 | 1011.9 |
| 20260906054557 | 21 | 12 | 1.6 | 6.4 | 0.71 | 1.04 | 0.30 | 95 | 1011.9 |
| 20260906053044 | 21 | 276 | 0.0 | 4.8 | 1.04 | 1.04 | 0.30 | 93 | 1011.8 |
| 20260906051511 | 22 | 278 | 0.0 | 6.4 | 1.02 | 1.02 | 0.28 | 93 | 1012.0 |
| 20260906050116 | 22 | 283 | 4.8 | 20.9 | 0.79 | 0.79 | 0.05 | 91 | 1012.3 |
| 20260906044544 | 25 | 322 | 1.6 | 12.9 | 0.33 | 0.33 | 0.33 | 83 | 1012.8 |
| 20260906043011 | 27 | 16 | 8.0 | 20.9 | 0.00 | 0.00 | 0.00 | 76 | 1013.0 |
| 20260906041614 | 27 | 95 | 1.6 | 11.3 | 0.00 | 0.00 | 0.00 | 86 | 1012.9 |
| 20260906040113 | 27 | 94 | 0.0 | 1.6 | 0.00 | 0.00 | 0.00 | 86 | 1012.7 |
| 20260906034547 | 27 | 94 | 0.0 | 9.7 | 0.00 | 0.00 | 0.00 | 86 | 1012.8 |
| 20260906033046 | 27 | 89 | 0.0 | 6.4 | 0.00 | 0.00 | 0.00 | 87 | 1012.6 |
| 20260906031533 | 27 | 82 | 0.0 | 6.4 | 0.00 | 0.00 | 0.00 | 88 | 1012.6 |
| 20260906030115 | 27 | 78 | 1.6 | 9.7 | 0.00 | 0.00 | 0.00 | 88 | 1012.6 |
| 20260906024600 | 27 | 39 | 0.0 | 0.0 | 0.00 | 0.00 | 0.00 | 87 | 1011.8 |
| 20260906023102 | 27 | 39 | 0.0 | 0.0 | 0.00 | 0.00 | 0.00 | 86 | 1011.7 |
| 20260906021541 | 27 | 39 | 0.0 | 0.0 | 0.00 | 0.00 | 0.00 | 86 | 1011.7 |
| 20260906020006 | 27 | 39 | 0.0 | 0.0 | 0.00 | 0.00 | 0.00 | 86 | 1011.7 |
| 20260906014629 | 28 | 39 | 0.0 | 0.0 | 0.00 | 0.00 | 0.00 | 85 | 1011.4 |
| 20260906013100 | 28 | 39 | 0.0 | 0.0 | 0.00 | 0.00 | 0.00 | 84 | 1011.0 |
| 20260906011556 | 28 | 39 | 0.0 | 0.0 | 0.00 | 0.00 | 0.00 | 86 | 1010.6 |
| 20260906010042 | 28 | 39 | 0.0 | 0.0 | 0.00 | 0.00 | 0.00 | 85 | 1010.3 |
| 20260906004515 | 28 | 39 | 0.0 | 0.0 | 0.00 | 0.00 | 0.00 | 81 | 1010.1 |
| 20260906003006 | 29 | 39 | 0.0 | 0.0 | 0.00 | 0.00 | 0.00 | 79 | 1010.3 |
| 20260906001607 | 30 | 39 | 0.0 | 0.0 | 0.00 | 0.00 | 0.00 | 79 | 1010.2 |
| 20260906000108 | 30 | 39 | 0.0 | 0.0 | 0.00 | 0.00 | 0.00 | 79 | 1010.2 |
| 20260905234555 | 31 | 39 | 0.0 | 0.0 | 0.00 | 0.00 | 0.00 | 77 | 1010.3 |
| 20260905233038 | 32 | 39 | 0.0 | 0.0 | 0.00 | 0.00 | 0.00 | 74 | 1010.4 |
| 20260905231505 | 33 | 39 | 0.0 | 0.0 | 0.00 | 0.00 | 0.00 | 70 | 1010.2 |
| 20260905230103 | 33 | 39 | 0.0 | 0.0 | 0.00 | 0.00 | 0.00 | 67 | 1010.3 |
| 20260905224557 | 34 | 39 | 0.0 | 0.0 | 0.00 | 0.00 | 0.00 | 63 | 1010.4 |
| 20260905223034 | 35 | 39 | 0.0 | 0.0 | 0.00 | 0.00 | 0.00 | 61 | 1010.3 |
| 20260905221502 | 35 | 39 | 0.0 | 0.0 | 0.00 | 0.00 | 0.00 | 55 | 1010.3 |
| 20260905220112 | 35 | 39 | 0.0 | 0.0 | 0.00 | 0.00 | 0.00 | 54 | 1010.2 |
| 20260905214550 | 35 | 39 | 0.0 | 0.0 | 0.00 | 0.00 | 0.00 | 50 | 1010.2 |
| 20260905213016 | 36 | 40 | 0.0 | 0.0 | 0.00 | 0.00 | 0.00 | 50 | 1010.4 |
| 20260905211506 | 36 | 39 | 0.0 | 6.4 | 0.00 | 0.00 | 0.00 | 51 | 1010.5 |
| 20260905210107 | 37 | 30 | 0.0 | 4.8 | 0.00 | 0.00 | 0.00 | 49 | 1010.7 |
| 20260905204549 | 37 | 32 | 0.0 | 0.0 | 0.00 | 0.00 | 0.00 | 50 | 1010.7 |
| 20260905203016 | 37 | 332 | 0.0 | 0.0 | 0.00 | 0.00 | 0.00 | 50 | 1010.8 |
| 20260905201617 | 37 | 27 | 0.0 | 8.0 | 0.00 | 0.00 | 0.00 | 50 | 1011.0 |
| 20260905194554 | 37 | 48 | 0.0 | 6.4 | 0.00 | 0.00 | 0.00 | 46 | 1011.2 |
| 20260905193046 | 37 | 60 | 0.0 | 11.3 | 0.00 | 0.00 | 0.00 | 54 | 1011.4 |
| 20260905191536 | 36 | 57 | 1.6 | 12.9 | 0.00 | 0.00 | 0.00 | 52 | 1011.7 |
| 20260905190116 | 36 | 115 | 1.6 | 12.9 | 0.00 | 0.00 | 0.00 | 55 | 1011.9 |
| 20260905184602 | 36 | 127 | 3.2 | 8.0 | 0.00 | 0.00 | 0.00 | 52 | 1012.1 |
| 20260905183046 | 36 | 100 | 1.6 | 9.7 | 0.00 | 0.00 | 0.00 | 53 | 1012.4 |
| 20260905181510 | 36 | 106 | 6.4 | 12.9 | 0.00 | 0.00 | 0.00 | 55 | 1012.7 |
| 20260905174554 | 36 | 75 | 0.0 | 6.4 | 0.00 | 0.00 | 0.00 | 54 | 1013.1 |
| 20260905173045 | 36 | 360 | 0.0 | 0.0 | 0.00 | 0.00 | 0.00 | 55 | 1013.2 |
| 20260905171513 | 36 | 18 | 0.0 | 3.2 | 0.00 | 0.00 | 0.00 | 57 | 1013.4 |
| 20260905170012 | 36 | 22 | 0.0 | 3.2 | 0.00 | 0.00 | 0.00 | 53 | 1013.5 |
| 20260905164611 | 35 | 355 | 0.0 | 6.4 | 0.00 | 0.00 | 0.00 | 58 | 1013.7 |
| 20260905163059 | 35 | 340 | 0.0 | 4.8 | 0.00 | 0.00 | 0.00 | 63 | 1013.9 |
| 20260905161545 | 35 | 34 | 0.0 | 0.0 | 0.00 | 0.00 | 0.00 | 63 | 1014.0 |
| 20260905160027 | 33 | 55 | 0.0 | 0.0 | 0.00 | 0.00 | 0.00 | 68 | 1014.0 |
| 20260905154607 | 33 | 80 | 0.0 | 0.0 | 0.00 | 0.00 | 0.00 | 69 | 1014.1 |
| 20260905153100 | 32 | 80 | 0.0 | 0.0 | 0.00 | 0.00 | 0.00 | 70 | 1014.2 |
| 20260905151545 | 32 | 80 | 0.0 | 3.2 | 0.00 | 0.00 | 0.00 | 72 | 1014.2 |
| 20260905150009 | 31 | 80 | 0.0 | 0.0 | 0.00 | 0.00 | 0.00 | 77 | 1014.2 |
| 20260905144612 | 30 | 80 | 0.0 | 0.0 | 0.00 | 0.00 | 0.00 | 77 | 1014.4 |
| 20260905143057 | 30 | 80 | 0.0 | 0.0 | 0.00 | 0.00 | 0.00 | 78 | 1014.3 |
| 20260905141552 | 29 | 80 | 0.0 | 0.0 | 0.00 | 0.00 | 0.00 | 79 | 1014.3 |
| 20260905140033 | 28 | 80 | 0.0 | 0.0 | 0.00 | 0.00 | 0.00 | 80 | 1014.4 |
| 20260905134611 | 27 | 80 | 0.0 | 0.0 | 0.00 | 0.00 | 0.00 | 85 | 1014.5 |
| 20260905133106 | 26 | 80 | 0.0 | 0.0 | 0.00 | 0.00 | 0.00 | 90 | 1014.7 |
| 20260905131602 | 25 | 80 | 0.0 | 0.0 | 0.00 | 0.00 | 0.00 | 93 | 1014.7 |
| 20260905130041 | 24 | 80 | 0.0 | 0.0 | 0.00 | 0.00 | 0.00 | 95 | 1014.7 |
| 20260905124506 | 23 | 80 | 0.0 | 0.0 | 0.00 | 0.00 | 0.00 | 96 | 1014.8 |
| 20260905123110 | 23 | 80 | 0.0 | 0.0 | 0.00 | 0.00 | 0.00 | 96 | 1014.8 |
| 20260905121602 | 23 | 80 | 0.0 | 0.0 | 0.00 | 0.00 | 0.00 | 96 | 1014.7 |
| 20260905120058 | 22 | 80 | 0.0 | 0.0 | 0.00 | 0.00 | 0.00 | 96 | 1014.5 |
| 20260905114543 | 22 | 80 | 0.0 | 0.0 | 0.00 | 0.00 | 0.00 | 95 | 1014.3 |
| 20260905113012 | 22 | 80 | 0.0 | 0.0 | 0.00 | 0.00 | 0.00 | 95 | 1014.2 |
| 20260905111614 | 22 | 80 | 0.0 | 0.0 | 0.00 | 0.00 | 0.00 | 95 | 1014.0 |
| 20260905110101 | 22 | 80 | 0.0 | 0.0 | 0.00 | 0.00 | 0.00 | 95 | 1013.9 |
| 20260905104552 | 23 | 80 | 0.0 | 0.0 | 0.00 | 0.00 | 0.00 | 95 | 1013.9 |
| 20260905103044 | 23 | 80 | 0.0 | 0.0 | 0.00 | 0.00 | 0.00 | 95 | 1014.0 |
| 20260905101516 | 23 | 80 | 0.0 | 0.0 | 0.00 | 0.00 | 0.00 | 95 | 1013.9 |